sensor_id;sensor_type;location;lat;lon;timestamp;P1;durP1;ratioP1;P2;durP2;ratioP2
21825;SDS011;11075;47.944;11.776;2023-03-23T00:01:07;3.93;;;1.93;;
21825;SDS011;11075;47.944;11.776;2023-03-23T00:03:38;5.27;;;2.30;;
21825;SDS011;11075;47.944;11.776;2023-03-23T00:06:06;3.97;;;1.93;;
21825;SDS011;11075;47.944;11.776;2023-03-23T00:08:37;3.17;;;2.10;;
21825;SDS011;11075;47.944;11.776;2023-03-23T00:11:13;2.03;;;1.80;;
21825;SDS011;11075;47.944;11.776;2023-03-23T00:13:44;6.93;;;1.80;;
21825;SDS011;11075;47.944;11.776;2023-03-23T00:16:12;3.27;;;1.67;;
21825;SDS011;11075;47.944;11.776;2023-03-23T00:18:48;3.03;;;2.13;;
21825;SDS011;11075;47.944;11.776;2023-03-23T00:21:18;3.57;;;2.40;;
21825;SDS011;11075;47.944;11.776;2023-03-23T00:23:44;2.67;;;2.00;;
21825;SDS011;11075;47.944;11.776;2023-03-23T00:26:11;4.33;;;2.30;;
21825;SDS011;11075;47.944;11.776;2023-03-23T00:28:38;2.93;;;1.87;;
21825;SDS011;11075;47.944;11.776;2023-03-23T00:31:06;2.50;;;2.00;;
21825;SDS011;11075;47.944;11.776;2023-03-23T00:33:34;2.83;;;2.00;;
21825;SDS011;11075;47.944;11.776;2023-03-23T00:36:12;4.23;;;2.30;;
21825;SDS011;11075;47.944;11.776;2023-03-23T00:38:39;4.53;;;2.23;;
21825;SDS011;11075;47.944;11.776;2023-03-23T00:41:07;5.30;;;1.80;;
21825;SDS011;11075;47.944;11.776;2023-03-23T00:43:33;2.73;;;1.80;;
21825;SDS011;11075;47.944;11.776;2023-03-23T00:46:01;3.60;;;1.83;;
21825;SDS011;11075;47.944;11.776;2023-03-23T00:48:34;3.77;;;2.00;;
21825;SDS011;11075;47.944;11.776;2023-03-23T00:51:10;4.10;;;2.20;;
21825;SDS011;11075;47.944;11.776;2023-03-23T00:53:39;3.43;;;2.10;;
21825;SDS011;11075;47.944;11.776;2023-03-23T00:56:06;3.90;;;2.07;;
21825;SDS011;11075;47.944;11.776;2023-03-23T00:58:32;7.30;;;1.87;;
21825;SDS011;11075;47.944;11.776;2023-03-23T01:00:58;5.80;;;1.63;;
21825;SDS011;11075;47.944;11.776;2023-03-23T01:03:24;3.20;;;2.10;;
21825;SDS011;11075;47.944;11.776;2023-03-23T01:05:52;3.53;;;1.80;;
21825;SDS011;11075;47.944;11.776;2023-03-23T01:08:18;3.07;;;2.00;;
21825;SDS011;11075;47.944;11.776;2023-03-23T01:10:45;3.90;;;1.97;;
21825;SDS011;11075;47.944;11.776;2023-03-23T01:13:11;2.80;;;2.40;;
21825;SDS011;11075;47.944;11.776;2023-03-23T01:15:38;4.77;;;1.83;;
21825;SDS011;11075;47.944;11.776;2023-03-23T01:18:04;2.23;;;1.83;;
21825;SDS011;11075;47.944;11.776;2023-03-23T01:20:30;5.03;;;2.07;;
21825;SDS011;11075;47.944;11.776;2023-03-23T01:22:59;4.47;;;2.00;;
21825;SDS011;11075;47.944;11.776;2023-03-23T01:25:30;7.87;;;2.13;;
21825;SDS011;11075;47.944;11.776;2023-03-23T01:27:57;3.67;;;1.60;;
21825;SDS011;11075;47.944;11.776;2023-03-23T01:30:24;2.67;;;2.10;;
21825;SDS011;11075;47.944;11.776;2023-03-23T01:32:51;4.13;;;2.00;;
21825;SDS011;11075;47.944;11.776;2023-03-23T01:35:17;4.33;;;1.77;;
21825;SDS011;11075;47.944;11.776;2023-03-23T01:37:44;2.67;;;2.20;;
21825;SDS011;11075;47.944;11.776;2023-03-23T01:40:10;6.10;;;2.20;;
21825;SDS011;11075;47.944;11.776;2023-03-23T01:42:37;4.07;;;2.10;;
21825;SDS011;11075;47.944;11.776;2023-03-23T01:48:12;4.83;;;2.27;;
21825;SDS011;11075;47.944;11.776;2023-03-23T01:50:42;9.43;;;2.70;;
21825;SDS011;11075;47.944;11.776;2023-03-23T01:53:13;7.73;;;2.20;;
21825;SDS011;11075;47.944;11.776;2023-03-23T01:55:40;3.10;;;2.07;;
21825;SDS011;11075;47.944;11.776;2023-03-23T01:58:09;7.47;;;2.20;;
21825;SDS011;11075;47.944;11.776;2023-03-23T02:00:37;4.23;;;2.17;;
21825;SDS011;11075;47.944;11.776;2023-03-23T02:03:06;4.63;;;2.03;;
21825;SDS011;11075;47.944;11.776;2023-03-23T02:05:36;3.63;;;1.93;;
21825;SDS011;11075;47.944;11.776;2023-03-23T02:08:16;4.60;;;2.40;;
21825;SDS011;11075;47.944;11.776;2023-03-23T02:10:44;5.20;;;1.77;;
21825;SDS011;11075;47.944;11.776;2023-03-23T02:13:11;3.30;;;2.07;;
21825;SDS011;11075;47.944;11.776;2023-03-23T02:15:45;3.73;;;2.00;;
21825;SDS011;11075;47.944;11.776;2023-03-23T02:29:18;3.40;;;2.03;;
21825;SDS011;11075;47.944;11.776;2023-03-23T02:35:20;6.77;;;2.60;;
21825;SDS011;11075;47.944;11.776;2023-03-23T02:38:30;2.13;;;1.87;;
21825;SDS011;11075;47.944;11.776;2023-03-23T02:40:41;7.43;;;3.50;;
21825;SDS011;11075;47.944;11.776;2023-03-23T02:43:12;11.57;;;2.30;;
21825;SDS011;11075;47.944;11.776;2023-03-23T02:45:40;3.93;;;1.83;;
21825;SDS011;11075;47.944;11.776;2023-03-23T02:48:09;4.17;;;2.07;;
21825;SDS011;11075;47.944;11.776;2023-03-23T02:50:37;3.40;;;2.00;;
21825;SDS011;11075;47.944;11.776;2023-03-23T02:53:08;4.30;;;1.90;;
21825;SDS011;11075;47.944;11.776;2023-03-23T02:55:38;3.93;;;2.00;;
21825;SDS011;11075;47.944;11.776;2023-03-23T02:58:12;5.37;;;2.30;;
21825;SDS011;11075;47.944;11.776;2023-03-23T03:00:40;2.87;;;1.90;;
21825;SDS011;11075;47.944;11.776;2023-03-23T03:03:08;3.80;;;1.80;;
21825;SDS011;11075;47.944;11.776;2023-03-23T03:05:44;7.83;;;2.57;;
21825;SDS011;11075;47.944;11.776;2023-03-23T03:08:40;3.40;;;2.13;;
21825;SDS011;11075;47.944;11.776;2023-03-23T03:11:20;2.90;;;1.73;;
21825;SDS011;11075;47.944;11.776;2023-03-23T03:13:53;5.17;;;2.13;;
21825;SDS011;11075;47.944;11.776;2023-03-23T03:17:02;4.30;;;2.40;;
21825;SDS011;11075;47.944;11.776;2023-03-23T03:19:17;4.67;;;2.00;;
21825;SDS011;11075;47.944;11.776;2023-03-23T03:21:47;3.30;;;2.20;;
21825;SDS011;11075;47.944;11.776;2023-03-23T03:24:22;4.33;;;1.93;;
21825;SDS011;11075;47.944;11.776;2023-03-23T03:26:51;2.53;;;2.00;;
21825;SDS011;11075;47.944;11.776;2023-03-23T03:29:30;6.80;;;2.07;;
21825;SDS011;11075;47.944;11.776;2023-03-23T03:32:02;6.00;;;2.40;;
21825;SDS011;11075;47.944;11.776;2023-03-23T03:34:31;2.07;;;1.70;;
21825;SDS011;11075;47.944;11.776;2023-03-23T03:36:58;3.63;;;1.97;;
21825;SDS011;11075;47.944;11.776;2023-03-23T03:39:25;2.37;;;1.70;;
21825;SDS011;11075;47.944;11.776;2023-03-23T03:41:52;3.87;;;2.10;;
21825;SDS011;11075;47.944;11.776;2023-03-23T03:44:19;5.90;;;2.00;;
21825;SDS011;11075;47.944;11.776;2023-03-23T03:46:45;4.03;;;2.20;;
21825;SDS011;11075;47.944;11.776;2023-03-23T03:49:11;7.57;;;2.30;;
21825;SDS011;11075;47.944;11.776;2023-03-23T03:51:40;2.77;;;2.47;;
21825;SDS011;11075;47.944;11.776;2023-03-23T03:54:14;2.60;;;2.20;;
21825;SDS011;11075;47.944;11.776;2023-03-23T03:56:41;5.13;;;2.10;;
21825;SDS011;11075;47.944;11.776;2023-03-23T03:59:28;2.07;;;1.87;;
21825;SDS011;11075;47.944;11.776;2023-03-23T04:02:14;2.37;;;1.83;;
21825;SDS011;11075;47.944;11.776;2023-03-23T04:04:42;2.90;;;1.70;;
21825;SDS011;11075;47.944;11.776;2023-03-23T04:07:08;3.50;;;2.23;;
21825;SDS011;11075;47.944;11.776;2023-03-23T04:09:40;3.17;;;1.93;;
21825;SDS011;11075;47.944;11.776;2023-03-23T04:12:07;3.77;;;2.30;;
21825;SDS011;11075;47.944;11.776;2023-03-23T04:14:52;3.07;;;2.20;;
21825;SDS011;11075;47.944;11.776;2023-03-23T04:17:18;4.00;;;2.60;;
21825;SDS011;11075;47.944;11.776;2023-03-23T04:19:45;5.90;;;2.87;;
21825;SDS011;11075;47.944;11.776;2023-03-23T04:22:13;3.37;;;2.90;;
21825;SDS011;11075;47.944;11.776;2023-03-23T04:24:41;3.30;;;2.40;;
21825;SDS011;11075;47.944;11.776;2023-03-23T04:27:13;8.90;;;3.00;;
21825;SDS011;11075;47.944;11.776;2023-03-23T04:29:40;2.80;;;2.33;;
21825;SDS011;11075;47.944;11.776;2023-03-23T04:32:32;3.87;;;2.80;;
21825;SDS011;11075;47.944;11.776;2023-03-23T04:34:59;4.13;;;2.73;;
21825;SDS011;11075;47.944;11.776;2023-03-23T04:37:32;6.73;;;3.00;;
21825;SDS011;11075;47.944;11.776;2023-03-23T04:40:01;7.07;;;2.80;;
21825;SDS011;11075;47.944;11.776;2023-03-23T04:42:31;5.80;;;2.60;;
21825;SDS011;11075;47.944;11.776;2023-03-23T04:45:20;8.37;;;2.47;;
21825;SDS011;11075;47.944;11.776;2023-03-23T04:47:49;3.50;;;2.40;;
21825;SDS011;11075;47.944;11.776;2023-03-23T04:50:33;3.83;;;2.33;;
21825;SDS011;11075;47.944;11.776;2023-03-23T04:53:08;5.17;;;3.10;;
21825;SDS011;11075;47.944;11.776;2023-03-23T04:55:35;6.47;;;2.80;;
21825;SDS011;11075;47.944;11.776;2023-03-23T04:58:06;4.97;;;2.40;;
21825;SDS011;11075;47.944;11.776;2023-03-23T05:00:55;3.73;;;2.40;;
21825;SDS011;11075;47.944;11.776;2023-03-23T05:03:23;4.70;;;2.50;;
21825;SDS011;11075;47.944;11.776;2023-03-23T05:05:53;3.47;;;2.47;;
21825;SDS011;11075;47.944;11.776;2023-03-23T05:08:21;7.03;;;2.80;;
21825;SDS011;11075;47.944;11.776;2023-03-23T05:10:50;8.13;;;4.10;;
21825;SDS011;11075;47.944;11.776;2023-03-23T05:13:23;5.97;;;3.33;;
21825;SDS011;11075;47.944;11.776;2023-03-23T05:15:51;9.77;;;2.87;;
21825;SDS011;11075;47.944;11.776;2023-03-23T05:18:17;3.10;;;2.70;;
21825;SDS011;11075;47.944;11.776;2023-03-23T05:20:45;3.53;;;2.60;;
21825;SDS011;11075;47.944;11.776;2023-03-23T05:23:15;3.67;;;2.53;;
21825;SDS011;11075;47.944;11.776;2023-03-23T05:25:44;4.53;;;2.23;;
21825;SDS011;11075;47.944;11.776;2023-03-23T05:28:14;2.83;;;2.40;;
21825;SDS011;11075;47.944;11.776;2023-03-23T05:30:58;4.47;;;2.53;;
21825;SDS011;11075;47.944;11.776;2023-03-23T05:33:29;8.47;;;3.47;;
21825;SDS011;11075;47.944;11.776;2023-03-23T05:36:03;11.10;;;3.27;;
21825;SDS011;11075;47.944;11.776;2023-03-23T05:38:44;8.90;;;3.37;;
21825;SDS011;11075;47.944;11.776;2023-03-23T05:41:15;6.53;;;2.97;;
21825;SDS011;11075;47.944;11.776;2023-03-23T05:43:41;5.47;;;3.63;;
21825;SDS011;11075;47.944;11.776;2023-03-23T05:46:40;15.20;;;3.20;;
21825;SDS011;11075;47.944;11.776;2023-03-23T05:49:06;4.60;;;2.93;;
21825;SDS011;11075;47.944;11.776;2023-03-23T05:51:37;4.57;;;2.90;;
21825;SDS011;11075;47.944;11.776;2023-03-23T05:54:03;8.83;;;3.60;;
21825;SDS011;11075;47.944;11.776;2023-03-23T05:56:30;9.60;;;3.90;;
21825;SDS011;11075;47.944;11.776;2023-03-23T05:59:25;8.33;;;4.40;;
21825;SDS011;11075;47.944;11.776;2023-03-23T06:01:54;7.77;;;4.23;;
21825;SDS011;11075;47.944;11.776;2023-03-23T06:04:20;8.23;;;4.07;;
21825;SDS011;11075;47.944;11.776;2023-03-23T06:07:15;7.10;;;4.33;;
21825;SDS011;11075;47.944;11.776;2023-03-23T06:09:49;11.73;;;4.33;;
21825;SDS011;11075;47.944;11.776;2023-03-23T06:12:22;5.03;;;3.43;;
21825;SDS011;11075;47.944;11.776;2023-03-23T06:15:06;11.93;;;4.00;;
21825;SDS011;11075;47.944;11.776;2023-03-23T06:18:02;8.23;;;3.77;;
21825;SDS011;11075;47.944;11.776;2023-03-23T06:21:04;4.30;;;3.20;;
21825;SDS011;11075;47.944;11.776;2023-03-23T06:23:46;10.70;;;3.73;;
21825;SDS011;11075;47.944;11.776;2023-03-23T06:26:15;7.27;;;2.67;;
21825;SDS011;11075;47.944;11.776;2023-03-23T06:28:46;7.53;;;2.37;;
21825;SDS011;11075;47.944;11.776;2023-03-23T06:31:12;6.83;;;2.57;;
21825;SDS011;11075;47.944;11.776;2023-03-23T06:33:40;6.00;;;2.53;;
21825;SDS011;11075;47.944;11.776;2023-03-23T06:36:34;4.93;;;2.00;;
21825;SDS011;11075;47.944;11.776;2023-03-23T06:39:23;9.30;;;2.57;;
21825;SDS011;11075;47.944;11.776;2023-03-23T06:41:56;2.40;;;2.10;;
21825;SDS011;11075;47.944;11.776;2023-03-23T06:44:22;4.40;;;2.53;;
21825;SDS011;11075;47.944;11.776;2023-03-23T06:46:48;3.63;;;2.10;;
21825;SDS011;11075;47.944;11.776;2023-03-23T06:49:34;6.83;;;2.70;;
21825;SDS011;11075;47.944;11.776;2023-03-23T06:52:10;4.23;;;2.43;;
21825;SDS011;11075;47.944;11.776;2023-03-23T06:54:36;6.63;;;2.40;;
21825;SDS011;11075;47.944;11.776;2023-03-23T06:57:04;4.50;;;2.60;;
21825;SDS011;11075;47.944;11.776;2023-03-23T06:59:30;5.53;;;2.50;;
21825;SDS011;11075;47.944;11.776;2023-03-23T07:01:56;3.87;;;2.97;;
21825;SDS011;11075;47.944;11.776;2023-03-23T07:04:22;7.70;;;2.37;;
21825;SDS011;11075;47.944;11.776;2023-03-23T07:07:00;4.43;;;2.40;;
21825;SDS011;11075;47.944;11.776;2023-03-23T07:09:27;1.93;;;1.73;;
21825;SDS011;11075;47.944;11.776;2023-03-23T07:11:53;2.87;;;2.07;;
21825;SDS011;11075;47.944;11.776;2023-03-23T07:14:28;3.03;;;2.03;;
21825;SDS011;11075;47.944;11.776;2023-03-23T07:16:55;4.20;;;2.33;;
21825;SDS011;11075;47.944;11.776;2023-03-23T07:19:21;3.53;;;2.27;;
21825;SDS011;11075;47.944;11.776;2023-03-23T07:21:47;4.40;;;2.17;;
21825;SDS011;11075;47.944;11.776;2023-03-23T07:24:15;3.67;;;2.30;;
21825;SDS011;11075;47.944;11.776;2023-03-23T07:27:00;26.03;;;2.50;;
21825;SDS011;11075;47.944;11.776;2023-03-23T07:29:27;6.10;;;2.63;;
21825;SDS011;11075;47.944;11.776;2023-03-23T07:32:03;5.57;;;2.37;;
21825;SDS011;11075;47.944;11.776;2023-03-23T07:34:30;14.00;;;2.67;;
21825;SDS011;11075;47.944;11.776;2023-03-23T07:37:05;4.70;;;2.07;;
21825;SDS011;11075;47.944;11.776;2023-03-23T07:39:34;3.67;;;2.07;;
21825;SDS011;11075;47.944;11.776;2023-03-23T07:42:00;17.97;;;3.30;;
21825;SDS011;11075;47.944;11.776;2023-03-23T07:44:49;3.43;;;2.40;;
21825;SDS011;11075;47.944;11.776;2023-03-23T07:47:15;9.87;;;2.30;;
21825;SDS011;11075;47.944;11.776;2023-03-23T07:49:45;9.03;;;2.20;;
21825;SDS011;11075;47.944;11.776;2023-03-23T07:52:16;8.27;;;2.00;;
21825;SDS011;11075;47.944;11.776;2023-03-23T07:54:43;4.70;;;2.08;;
21825;SDS011;11075;47.944;11.776;2023-03-23T07:57:21;5.57;;;2.37;;
21825;SDS011;11075;47.944;11.776;2023-03-23T07:59:51;5.68;;;2.30;;
21825;SDS011;11075;47.944;11.776;2023-03-23T08:02:17;5.37;;;2.13;;
21825;SDS011;11075;47.944;11.776;2023-03-23T08:04:54;5.85;;;2.25;;
21825;SDS011;11075;47.944;11.776;2023-03-23T08:07:51;3.95;;;2.47;;
21825;SDS011;11075;47.944;11.776;2023-03-23T08:10:42;5.25;;;2.63;;
21825;SDS011;11075;47.944;11.776;2023-03-23T08:13:37;3.00;;;1.83;;
21825;SDS011;11075;47.944;11.776;2023-03-23T08:16:38;2.38;;;1.88;;
21825;SDS011;11075;47.944;11.776;2023-03-23T08:19:40;2.88;;;1.90;;
21825;SDS011;11075;47.944;11.776;2023-03-23T08:22:24;5.32;;;1.60;;
21825;SDS011;11075;47.944;11.776;2023-03-23T08:25:26;2.35;;;1.60;;
21825;SDS011;11075;47.944;11.776;2023-03-23T08:28:06;3.92;;;2.08;;
21825;SDS011;11075;47.944;11.776;2023-03-23T08:30:56;2.60;;;1.70;;
21825;SDS011;11075;47.944;11.776;2023-03-23T08:33:39;5.57;;;1.80;;
21825;SDS011;11075;47.944;11.776;2023-03-23T08:36:33;5.13;;;1.50;;
21825;SDS011;11075;47.944;11.776;2023-03-23T08:39:20;1.65;;;1.30;;
21825;SDS011;11075;47.944;11.776;2023-03-23T08:41:59;5.60;;;1.45;;
21825;SDS011;11075;47.944;11.776;2023-03-23T08:44:46;1.42;;;1.33;;
21825;SDS011;11075;47.944;11.776;2023-03-23T08:47:32;3.88;;;1.50;;
21825;SDS011;11075;47.944;11.776;2023-03-23T08:50:17;2.03;;;1.20;;
21825;SDS011;11075;47.944;11.776;2023-03-23T08:53:03;3.85;;;1.60;;
21825;SDS011;11075;47.944;11.776;2023-03-23T08:55:47;6.18;;;1.77;;
21825;SDS011;11075;47.944;11.776;2023-03-23T08:58:33;3.97;;;1.80;;
21825;SDS011;11075;47.944;11.776;2023-03-23T09:01:12;4.68;;;2.10;;
21825;SDS011;11075;47.944;11.776;2023-03-23T09:04:13;16.08;;;2.65;;
21825;SDS011;11075;47.944;11.776;2023-03-23T09:07:09;2.40;;;1.95;;
21825;SDS011;11075;47.944;11.776;2023-03-23T09:09:37;3.42;;;1.77;;
21825;SDS011;11075;47.944;11.776;2023-03-23T09:12:07;4.32;;;2.05;;
21825;SDS011;11075;47.944;11.776;2023-03-23T09:14:37;4.03;;;1.90;;
21825;SDS011;11075;47.944;11.776;2023-03-23T09:17:04;4.20;;;1.95;;
21825;SDS011;11075;47.944;11.776;2023-03-23T09:19:33;2.92;;;1.90;;
21825;SDS011;11075;47.944;11.776;2023-03-23T09:22:00;2.42;;;1.90;;
21825;SDS011;11075;47.944;11.776;2023-03-23T09:24:28;7.72;;;2.05;;
21825;SDS011;11075;47.944;11.776;2023-03-23T09:26:54;2.72;;;1.60;;
21825;SDS011;11075;47.944;11.776;2023-03-23T09:29:19;4.28;;;2.00;;
21825;SDS011;11075;47.944;11.776;2023-03-23T09:31:46;2.67;;;1.73;;
21825;SDS011;11075;47.944;11.776;2023-03-23T09:34:13;2.70;;;1.50;;
21825;SDS011;11075;47.944;11.776;2023-03-23T09:36:41;2.90;;;2.00;;
21825;SDS011;11075;47.944;11.776;2023-03-23T09:39:08;4.63;;;2.03;;
21825;SDS011;11075;47.944;11.776;2023-03-23T09:50:19;5.05;;;1.60;;
21825;SDS011;11075;47.944;11.776;2023-03-23T09:53:00;8.45;;;2.08;;
21825;SDS011;11075;47.944;11.776;2023-03-23T09:55:47;3.58;;;1.98;;
21825;SDS011;11075;47.944;11.776;2023-03-23T10:01:37;2.47;;;1.70;;
21825;SDS011;11075;47.944;11.776;2023-03-23T10:04:16;5.05;;;1.88;;
21825;SDS011;11075;47.944;11.776;2023-03-23T10:09:12;4.97;;;1.75;;
21825;SDS011;11075;47.944;11.776;2023-03-23T10:11:54;1.90;;;1.60;;
21825;SDS011;11075;47.944;11.776;2023-03-23T10:14:32;5.38;;;2.05;;
21825;SDS011;11075;47.944;11.776;2023-03-23T10:22:31;6.28;;;1.85;;
21825;SDS011;11075;47.944;11.776;2023-03-23T10:25:05;2.88;;;1.92;;
21825;SDS011;11075;47.944;11.776;2023-03-23T10:30:32;4.15;;;1.83;;
21825;SDS011;11075;47.944;11.776;2023-03-23T10:33:02;2.70;;;1.92;;
21825;SDS011;11075;47.944;11.776;2023-03-23T10:35:54;4.18;;;2.30;;
21825;SDS011;11075;47.944;11.776;2023-03-23T10:38:39;4.38;;;2.25;;
21825;SDS011;11075;47.944;11.776;2023-03-23T10:41:15;3.20;;;2.10;;
21825;SDS011;11075;47.944;11.776;2023-03-23T10:43:43;2.30;;;2.08;;
21825;SDS011;11075;47.944;11.776;2023-03-23T10:48:58;2.67;;;1.95;;
21825;SDS011;11075;47.944;11.776;2023-03-23T10:51:29;3.28;;;1.70;;
21825;SDS011;11075;47.944;11.776;2023-03-23T10:54:00;2.35;;;1.65;;
21825;SDS011;11075;47.944;11.776;2023-03-23T10:56:35;3.00;;;1.88;;
21825;SDS011;11075;47.944;11.776;2023-03-23T11:02:00;7.65;;;1.80;;
21825;SDS011;11075;47.944;11.776;2023-03-23T11:04:35;2.55;;;1.80;;
21825;SDS011;11075;47.944;11.776;2023-03-23T11:07:02;4.72;;;1.73;;
21825;SDS011;11075;47.944;11.776;2023-03-23T11:09:38;4.97;;;2.28;;
21825;SDS011;11075;47.944;11.776;2023-03-23T11:12:17;3.03;;;2.30;;
21825;SDS011;11075;47.944;11.776;2023-03-23T11:14:44;2.63;;;1.90;;
21825;SDS011;11075;47.944;11.776;2023-03-23T11:17:21;2.92;;;2.00;;
21825;SDS011;11075;47.944;11.776;2023-03-23T11:19:50;2.38;;;1.83;;
21825;SDS011;11075;47.944;11.776;2023-03-23T11:22:26;2.65;;;1.92;;
21825;SDS011;11075;47.944;11.776;2023-03-23T11:25:02;6.90;;;2.03;;
21825;SDS011;11075;47.944;11.776;2023-03-23T11:27:30;4.78;;;1.90;;
21825;SDS011;11075;47.944;11.776;2023-03-23T11:32:23;5.25;;;2.38;;
21825;SDS011;11075;47.944;11.776;2023-03-23T11:35:01;2.60;;;1.58;;
21825;SDS011;11075;47.944;11.776;2023-03-23T11:37:43;2.90;;;1.83;;
21825;SDS011;11075;47.944;11.776;2023-03-23T11:40:18;5.70;;;2.17;;
21825;SDS011;11075;47.944;11.776;2023-03-23T11:43:08;3.78;;;3.00;;
21825;SDS011;11075;47.944;11.776;2023-03-23T11:45:38;6.22;;;2.85;;
21825;SDS011;11075;47.944;11.776;2023-03-23T11:51:30;4.10;;;3.05;;
21825;SDS011;11075;47.944;11.776;2023-03-23T11:54:16;4.22;;;2.92;;
21825;SDS011;11075;47.944;11.776;2023-03-23T11:56:46;8.88;;;3.10;;
21825;SDS011;11075;47.944;11.776;2023-03-23T11:59:14;4.28;;;2.50;;
21825;SDS011;11075;47.944;11.776;2023-03-23T12:07:03;5.30;;;3.55;;
21825;SDS011;11075;47.944;11.776;2023-03-23T12:41:20;4.72;;;3.08;;
21825;SDS011;11075;47.944;11.776;2023-03-23T12:44:06;5.15;;;2.70;;
21825;SDS011;11075;47.944;11.776;2023-03-23T12:49:35;3.65;;;2.40;;
21825;SDS011;11075;47.944;11.776;2023-03-23T12:52:20;3.67;;;2.58;;
21825;SDS011;11075;47.944;11.776;2023-03-23T12:57:29;3.83;;;2.10;;
21825;SDS011;11075;47.944;11.776;2023-03-23T13:02:38;2.30;;;1.95;;
21825;SDS011;11075;47.944;11.776;2023-03-23T13:07:52;3.92;;;2.00;;
21825;SDS011;11075;47.944;11.776;2023-03-23T13:10:28;2.85;;;2.15;;
21825;SDS011;11075;47.944;11.776;2023-03-23T13:12:59;4.72;;;2.42;;
21825;SDS011;11075;47.944;11.776;2023-03-23T13:15:41;3.10;;;2.20;;
21825;SDS011;11075;47.944;11.776;2023-03-23T13:26:23;4.05;;;2.65;;
21825;SDS011;11075;47.944;11.776;2023-03-23T13:31:28;3.50;;;2.20;;
21825;SDS011;11075;47.944;11.776;2023-03-23T13:34:01;2.60;;;2.40;;
21825;SDS011;11075;47.944;11.776;2023-03-23T13:36:37;3.92;;;2.45;;
21825;SDS011;11075;47.944;11.776;2023-03-23T13:57:54;3.03;;;1.77;;
21825;SDS011;11075;47.944;11.776;2023-03-23T14:00:36;2.38;;;1.98;;
21825;SDS011;11075;47.944;11.776;2023-03-23T14:06:02;2.08;;;1.55;;
21825;SDS011;11075;47.944;11.776;2023-03-23T14:08:53;2.38;;;1.50;;
21825;SDS011;11075;47.944;11.776;2023-03-23T14:11:22;3.50;;;1.20;;
21825;SDS011;11075;47.944;11.776;2023-03-23T14:19:40;3.05;;;1.10;;
21825;SDS011;11075;47.944;11.776;2023-03-23T14:22:02;2.55;;;1.30;;
21825;SDS011;11075;47.944;11.776;2023-03-23T14:24:29;1.70;;;1.42;;
21825;SDS011;11075;47.944;11.776;2023-03-23T14:29:46;3.00;;;1.20;;
21825;SDS011;11075;47.944;11.776;2023-03-23T14:32:23;1.52;;;1.10;;
21825;SDS011;11075;47.944;11.776;2023-03-23T14:34:51;2.80;;;1.20;;
21825;SDS011;11075;47.944;11.776;2023-03-23T14:37:18;2.10;;;1.38;;
21825;SDS011;11075;47.944;11.776;2023-03-23T14:39:47;1.27;;;1.08;;
21825;SDS011;11075;47.944;11.776;2023-03-23T14:42:18;2.45;;;1.35;;
21825;SDS011;11075;47.944;11.776;2023-03-23T14:44:52;5.93;;;1.75;;
21825;SDS011;11075;47.944;11.776;2023-03-23T14:47:26;1.40;;;1.17;;
21825;SDS011;11075;47.944;11.776;2023-03-23T14:49:56;3.50;;;0.93;;
21825;SDS011;11075;47.944;11.776;2023-03-23T14:52:25;3.67;;;1.40;;
21825;SDS011;11075;47.944;11.776;2023-03-23T14:54:52;2.90;;;1.45;;
21825;SDS011;11075;47.944;11.776;2023-03-23T14:57:25;1.10;;;1.00;;
21825;SDS011;11075;47.944;11.776;2023-03-23T14:59:52;2.70;;;1.10;;
21825;SDS011;11075;47.944;11.776;2023-03-23T15:02:25;1.00;;;0.90;;
21825;SDS011;11075;47.944;11.776;2023-03-23T15:05:15;1.75;;;1.02;;
21825;SDS011;11075;47.944;11.776;2023-03-23T15:07:52;0.98;;;0.88;;
21825;SDS011;11075;47.944;11.776;2023-03-23T15:10:22;2.05;;;1.17;;
21825;SDS011;11075;47.944;11.776;2023-03-23T15:12:49;3.08;;;1.27;;
21825;SDS011;11075;47.944;11.776;2023-03-23T15:15:30;2.55;;;1.45;;
21825;SDS011;11075;47.944;11.776;2023-03-23T15:17:58;2.10;;;1.30;;
21825;SDS011;11075;47.944;11.776;2023-03-23T15:20:27;3.60;;;0.90;;
21825;SDS011;11075;47.944;11.776;2023-03-23T15:22:55;1.95;;;1.00;;
21825;SDS011;11075;47.944;11.776;2023-03-23T15:27:52;1.10;;;1.00;;
21825;SDS011;11075;47.944;11.776;2023-03-23T15:32:52;2.17;;;1.23;;
21825;SDS011;11075;47.944;11.776;2023-03-23T15:35:26;1.38;;;1.10;;
21825;SDS011;11075;47.944;11.776;2023-03-23T15:37:53;1.30;;;0.90;;
21825;SDS011;11075;47.944;11.776;2023-03-23T15:40:22;1.52;;;1.23;;
21825;SDS011;11075;47.944;11.776;2023-03-23T15:43:05;1.67;;;1.17;;
21825;SDS011;11075;47.944;11.776;2023-03-23T15:45:32;3.15;;;1.27;;
21825;SDS011;11075;47.944;11.776;2023-03-23T15:48:08;3.45;;;0.98;;
21825;SDS011;11075;47.944;11.776;2023-03-23T15:50:36;1.77;;;1.00;;
21825;SDS011;11075;47.944;11.776;2023-03-23T15:53:15;1.70;;;0.90;;
21825;SDS011;11075;47.944;11.776;2023-03-23T15:55:43;2.90;;;0.80;;
21825;SDS011;11075;47.944;11.776;2023-03-23T15:58:10;5.00;;;1.33;;
21825;SDS011;11075;47.944;11.776;2023-03-23T16:00:38;3.05;;;1.50;;
21825;SDS011;11075;47.944;11.776;2023-03-23T16:03:10;1.73;;;1.00;;
21825;SDS011;11075;47.944;11.776;2023-03-23T16:05:41;2.75;;;1.35;;
21825;SDS011;11075;47.944;11.776;2023-03-23T16:10:37;1.15;;;1.00;;
21825;SDS011;11075;47.944;11.776;2023-03-23T16:13:04;1.67;;;1.17;;
21825;SDS011;11075;47.944;11.776;2023-03-23T16:15:32;1.65;;;1.20;;
21825;SDS011;11075;47.944;11.776;2023-03-23T16:17:59;3.25;;;1.15;;
21825;SDS011;11075;47.944;11.776;2023-03-23T16:20:27;2.20;;;1.40;;
21825;SDS011;11075;47.944;11.776;2023-03-23T16:22:55;2.67;;;1.13;;
21825;SDS011;11075;47.944;11.776;2023-03-23T16:25:22;3.33;;;1.25;;
21825;SDS011;11075;47.944;11.776;2023-03-23T16:27:50;4.45;;;1.67;;
21825;SDS011;11075;47.944;11.776;2023-03-23T16:30:21;2.45;;;1.52;;
21825;SDS011;11075;47.944;11.776;2023-03-23T16:32:49;2.03;;;1.30;;
21825;SDS011;11075;47.944;11.776;2023-03-23T16:35:20;6.85;;;1.40;;
21825;SDS011;11075;47.944;11.776;2023-03-23T16:37:49;1.98;;;1.30;;
21825;SDS011;11075;47.944;11.776;2023-03-23T16:40:34;2.40;;;1.50;;
21825;SDS011;11075;47.944;11.776;2023-03-23T16:43:01;4.20;;;1.40;;
21825;SDS011;11075;47.944;11.776;2023-03-23T16:45:35;3.95;;;1.30;;
21825;SDS011;11075;47.944;11.776;2023-03-23T16:48:07;6.13;;;1.40;;
21825;SDS011;11075;47.944;11.776;2023-03-23T16:50:35;4.00;;;1.45;;
21825;SDS011;11075;47.944;11.776;2023-03-23T16:53:04;2.28;;;1.40;;
21825;SDS011;11075;47.944;11.776;2023-03-23T16:55:33;8.18;;;1.73;;
21825;SDS011;11075;47.944;11.776;2023-03-23T16:58:02;2.45;;;1.35;;
21825;SDS011;11075;47.944;11.776;2023-03-23T17:00:32;8.20;;;1.25;;
21825;SDS011;11075;47.944;11.776;2023-03-23T17:02:59;3.90;;;1.30;;
21825;SDS011;11075;47.944;11.776;2023-03-23T17:05:27;3.08;;;1.42;;
21825;SDS011;11075;47.944;11.776;2023-03-23T17:07:54;2.95;;;1.40;;
21825;SDS011;11075;47.944;11.776;2023-03-23T17:10:22;4.25;;;1.05;;
21825;SDS011;11075;47.944;11.776;2023-03-23T17:12:52;3.13;;;1.02;;
21825;SDS011;11075;47.944;11.776;2023-03-23T17:15:19;2.83;;;1.42;;
21825;SDS011;11075;47.944;11.776;2023-03-23T17:17:47;3.50;;;1.20;;
21825;SDS011;11075;47.944;11.776;2023-03-23T17:20:14;1.48;;;1.38;;
21825;SDS011;11075;47.944;11.776;2023-03-23T17:22:41;7.45;;;2.85;;
21825;SDS011;11075;47.944;11.776;2023-03-23T17:25:08;10.75;;;3.38;;
21825;SDS011;11075;47.944;11.776;2023-03-23T17:27:35;8.98;;;2.30;;
21825;SDS011;11075;47.944;11.776;2023-03-23T17:30:04;10.73;;;3.63;;
21825;SDS011;11075;47.944;11.776;2023-03-23T17:32:33;4.38;;;2.42;;
21825;SDS011;11075;47.944;11.776;2023-03-23T17:35:02;8.70;;;2.22;;